Time;durP1;ratioP1;P1;durP2;ratioP2;P2;SDS_P1;SDS_P2;PMS_P1;PMS_P2;Temp;Humidity;BMP_temperature;BMP_pressure;BME280_temperature;BME280_humidity;BME280_pressure;Samples;Min_cycle;Max_cycle;Signal;HPM_P1;HPM_P2
2021/07/11 00:01:02;;;;;;;18.60;12.30;;;;;;;;;;5050749;28;20069;-85
2021/07/11 00:03:29;;;;;;;19.77;12.45;;;;;;;;;;5034439;28;20045;-85
2021/07/11 00:05:56;;;;;;;20.98;13.57;;;;;;;;;;5030261;28;20111;-84
2021/07/11 00:08:22;;;;;;;19.42;13.73;;;;;;;;;;5040090;28;20049;-84
2021/07/11 00:10:58;;;;;;;16.35;12.48;;;;;;;;;;5023316;28;20128;-84
2021/07/11 00:13:24;;;;;;;19.33;13.02;;;;;;;;;;5039059;28;20136;-84
2021/07/11 00:15:51;;;;;;;20.83;13.27;;;;;;;;;;5021622;28;20041;-84
2021/07/11 00:18:18;;;;;;;19.90;12.95;;;;;;;;;;5032593;28;20053;-84
2021/07/11 00:20:45;;;;;;;16.65;13.50;;;;;;;;;;5034497;28;20112;-84
2021/07/11 00:23:11;;;;;;;21.00;12.93;;;;;;;;;;5035764;28;20048;-84
2021/07/11 00:25:38;;;;;;;19.02;12.98;;;;;;;;;;5033432;28;20137;-84
2021/07/11 00:28:05;;;;;;;19.45;14.07;;;;;;;;;;5034819;28;20190;-84
2021/07/11 00:30:33;;;;;;;21.48;14.13;;;;;;;;;;5036316;28;20088;-84
2021/07/11 00:33:00;;;;;;;19.95;13.68;;;;;;;;;;5031274;28;20101;-85
2021/07/11 00:35:28;;;;;;;17.92;12.18;;;;;;;;;;5053873;28;20045;-85
2021/07/11 00:37:56;;;;;;;17.42;12.32;;;;;;;;;;5051379;28;20049;-85
2021/07/11 00:40:22;;;;;;;18.20;12.13;;;;;;;;;;5066092;28;20055;-85
2021/07/11 00:42:48;;;;;;;16.80;11.95;;;;;;;;;;5047874;28;20075;-85
2021/07/11 00:45:22;;;;;;;16.02;12.13;;;;;;;;;;5057651;28;20417;-85
2021/07/11 00:47:49;;;;;;;20.45;13.15;;;;;;;;;;5047347;28;20055;-85
2021/07/11 00:50:17;;;;;;;19.23;13.95;;;;;;;;;;5053027;28;20089;-85
2021/07/11 00:52:50;;;;;;;17.75;12.73;;;;;;;;;;5062316;28;20049;-85
2021/07/11 00:55:17;;;;;;;17.15;12.80;;;;;;;;;;5041679;28;20080;-85
2021/07/11 00:57:43;;;;;;;21.40;12.70;;;;;;;;;;5038427;28;20073;-85
2021/07/11 01:00:11;;;;;;;17.30;12.60;;;;;;;;;;5059363;28;20064;-87
2021/07/11 01:02:48;;;;;;;17.38;13.05;;;;;;;;;;5061957;28;20056;-85
2021/07/11 01:05:17;;;;;;;16.67;11.57;;;;;;;;;;5050522;28;20064;-85
2021/07/11 01:07:56;;;;;;;17.13;12.25;;;;;;;;;;5054840;28;20053;-84
2021/07/11 01:10:30;;;;;;;17.92;11.85;;;;;;;;;;5039596;28;20079;-86
2021/07/11 01:12:57;;;;;;;18.65;12.25;;;;;;;;;;5029840;28;20057;-86
2021/07/11 01:15:24;;;;;;;18.65;13.18;;;;;;;;;;5019714;28;20045;-86
2021/07/11 01:17:53;;;;;;;17.40;12.10;;;;;;;;;;5020287;28;20060;-86
2021/07/11 01:20:33;;;;;;;16.67;12.32;;;;;;;;;;5018114;28;20092;-87
2021/07/11 01:23:01;;;;;;;19.45;12.82;;;;;;;;;;5032220;28;20045;-86
2021/07/11 01:25:38;;;;;;;19.35;12.43;;;;;;;;;;5037651;28;20053;-86
2021/07/11 01:28:06;;;;;;;16.38;12.13;;;;;;;;;;5036960;28;20452;-87
2021/07/11 01:30:34;;;;;;;19.92;13.48;;;;;;;;;;5019193;28;20216;-86
2021/07/11 01:33:02;;;;;;;20.55;12.43;;;;;;;;;;5018176;28;20050;-86
2021/07/11 01:35:30;;;;;;;22.23;13.88;;;;;;;;;;5029310;28;20053;-87
2021/07/11 01:37:57;;;;;;;20.70;12.15;;;;;;;;;;5034018;28;20053;-86
2021/07/11 01:40:24;;;;;;;18.42;13.70;;;;;;;;;;5018172;28;20125;-86
2021/07/11 01:42:52;;;;;;;21.75;14.35;;;;;;;;;;5018678;28;20054;-87
2021/07/11 01:45:18;;;;;;;24.60;15.15;;;;;;;;;;5039153;28;20053;-86
2021/07/11 01:47:45;;;;;;;18.80;14.18;;;;;;;;;;5016833;28;20103;-86
2021/07/11 01:50:12;;;;;;;16.05;13.20;;;;;;;;;;5017515;28;20057;-84
2021/07/11 01:52:40;;;;;;;19.40;14.30;;;;;;;;;;5019883;28;20075;-84
2021/07/11 01:55:07;;;;;;;21.55;13.02;;;;;;;;;;5037050;28;20061;-87
2021/07/11 01:57:34;;;;;;;21.98;13.55;;;;;;;;;;5038572;28;20055;-85
2021/07/11 02:00:01;;;;;;;20.65;13.43;;;;;;;;;;5019618;28;20049;-85
2021/07/11 02:02:28;;;;;;;21.02;13.57;;;;;;;;;;5038265;28;20049;-84
2021/07/11 02:04:55;;;;;;;18.55;13.45;;;;;;;;;;5043232;28;20056;-84
2021/07/11 02:07:21;;;;;;;22.10;13.80;;;;;;;;;;5040490;28;20056;-84
2021/07/11 02:09:48;;;;;;;22.65;14.82;;;;;;;;;;5024705;28;20150;-86
2021/07/11 02:12:15;;;;;;;17.10;12.60;;;;;;;;;;5024315;28;20127;-85
2021/07/11 02:14:42;;;;;;;19.13;13.60;;;;;;;;;;5043259;28;20196;-85
2021/07/11 02:17:12;;;;;;;20.95;13.50;;;;;;;;;;5042793;28;20084;-84
2021/07/11 02:19:39;;;;;;;18.10;13.02;;;;;;;;;;5024666;28;20060;-85
2021/07/11 02:22:07;;;;;;;22.25;13.25;;;;;;;;;;5024051;28;20063;-85
2021/07/11 02:24:38;;;;;;;20.13;14.30;;;;;;;;;;5041928;28;20049;-85
2021/07/11 02:27:10;;;;;;;22.58;14.20;;;;;;;;;;5019670;28;20057;-85
2021/07/11 02:29:43;;;;;;;18.25;13.32;;;;;;;;;;5020901;28;20081;-85
2021/07/11 02:32:11;;;;;;;17.65;13.32;;;;;;;;;;5020807;28;20104;-85
2021/07/11 02:34:42;;;;;;;19.00;13.40;;;;;;;;;;5021287;28;20046;-84
2021/07/11 02:37:10;;;;;;;18.15;13.43;;;;;;;;;;5024310;28;20425;-85
2021/07/11 02:39:39;;;;;;;20.17;14.35;;;;;;;;;;5039588;28;20327;-85
2021/07/11 02:42:09;;;;;;;20.63;12.80;;;;;;;;;;5040307;28;20059;-85
2021/07/11 02:44:37;;;;;;;18.48;14.13;;;;;;;;;;5039398;28;20050;-85
2021/07/11 02:47:17;;;;;;;19.30;14.68;;;;;;;;;;5040934;28;20046;-85
2021/07/11 02:49:46;;;;;;;20.88;13.98;;;;;;;;;;5039807;28;20073;-85
2021/07/11 02:52:14;;;;;;;19.73;14.50;;;;;;;;;;5038089;28;20049;-85
2021/07/11 02:55:10;;;;;;;22.90;14.85;;;;;;;;;;5023626;28;20077;-84
2021/07/11 02:57:38;;;;;;;19.57;14.50;;;;;;;;;;5018703;28;20049;-85
2021/07/11 03:00:09;;;;;;;19.20;13.85;;;;;;;;;;5024680;28;20080;-85
2021/07/11 03:02:38;;;;;;;18.38;13.80;;;;;;;;;;5039428;28;20068;-85
2021/07/11 03:05:05;;;;;;;22.48;14.65;;;;;;;;;;5040940;28;20049;-85
2021/07/11 03:07:32;;;;;;;20.50;14.63;;;;;;;;;;5040856;28;20065;-85
2021/07/11 03:10:01;;;;;;;18.75;14.70;;;;;;;;;;5040646;28;20482;-85
2021/07/11 03:12:29;;;;;;;24.60;15.65;;;;;;;;;;5039358;28;20057;-85
2021/07/11 03:14:56;;;;;;;23.27;15.68;;;;;;;;;;5032990;28;20500;-85
2021/07/11 03:17:24;;;;;;;20.92;14.52;;;;;;;;;;5020284;28;20050;-84
2021/07/11 03:19:53;;;;;;;21.75;14.75;;;;;;;;;;5020169;28;20049;-86
2021/07/11 03:22:21;;;;;;;23.38;14.43;;;;;;;;;;5027241;28;20144;-86
2021/07/11 03:24:49;;;;;;;22.38;15.15;;;;;;;;;;5052176;28;20041;-86
2021/07/11 03:27:17;;;;;;;21.00;14.40;;;;;;;;;;5067449;28;20067;-86
2021/07/11 03:30:04;;;;;;;21.13;15.10;;;;;;;;;;5043889;28;20049;-86
2021/07/11 03:32:33;;;;;;;22.38;15.27;;;;;;;;;;5060472;28;20487;-86
2021/07/11 03:35:06;;;;;;;21.00;14.82;;;;;;;;;;5049319;28;20053;-86
2021/07/11 03:37:34;;;;;;;22.52;15.50;;;;;;;;;;5080196;28;20057;-86
2021/07/11 03:40:02;;;;;;;22.48;15.48;;;;;;;;;;5044798;28;20135;-86
2021/07/11 03:42:32;;;;;;;21.48;15.35;;;;;;;;;;5023293;28;20077;-86
2021/07/11 03:44:59;;;;;;;22.88;16.05;;;;;;;;;;5023425;28;20053;-86
2021/07/11 03:47:28;;;;;;;22.48;16.58;;;;;;;;;;5024844;28;20074;-86
2021/07/11 03:49:56;;;;;;;22.20;15.02;;;;;;;;;;5042665;28;20115;-86
2021/07/11 03:52:25;;;;;;;22.50;15.68;;;;;;;;;;5043587;28;20041;-86
2021/07/11 03:54:54;;;;;;;20.02;15.18;;;;;;;;;;5026539;28;20053;-86
2021/07/11 03:57:25;;;;;;;21.25;14.88;;;;;;;;;;5026120;28;20049;-86
2021/07/11 03:59:52;;;;;;;21.58;15.80;;;;;;;;;;5025789;28;20107;-86
2021/07/11 04:02:20;;;;;;;23.80;15.75;;;;;;;;;;5042457;28;20057;-86
2021/07/11 04:04:55;;;;;;;22.77;14.80;;;;;;;;;;5028276;28;20057;-86
2021/07/11 04:07:22;;;;;;;24.17;15.32;;;;;;;;;;5044181;28;20139;-86
2021/07/11 04:09:49;;;;;;;21.77;14.27;;;;;;;;;;5043319;28;20053;-86
2021/07/11 04:12:15;;;;;;;21.58;13.30;;;;;;;;;;5042596;28;20060;-86
2021/07/11 04:14:46;;;;;;;16.67;12.50;;;;;;;;;;5060271;28;20045;-86
2021/07/11 04:17:13;;;;;;;17.92;13.40;;;;;;;;;;5039703;28;20045;-86
2021/07/11 04:19:41;;;;;;;17.77;11.88;;;;;;;;;;5039524;28;20049;-86
2021/07/11 04:22:09;;;;;;;17.58;11.95;;;;;;;;;;5041975;28;20057;-86
2021/07/11 04:24:36;;;;;;;16.35;11.10;;;;;;;;;;5039423;28;20456;-86
2021/07/11 04:27:06;;;;;;;13.60;10.23;;;;;;;;;;5037670;28;20148;-86
2021/07/11 04:29:36;;;;;;;13.68;10.57;;;;;;;;;;5039021;28;20049;-87
2021/07/11 04:32:03;;;;;;;14.07;10.57;;;;;;;;;;5022006;28;20061;-86
2021/07/11 04:34:34;;;;;;;12.68;9.85;;;;;;;;;;5043835;28;20135;-86
2021/07/11 04:37:03;;;;;;;13.30;9.68;;;;;;;;;;5061853;28;20076;-86
2021/07/11 04:39:30;;;;;;;16.30;10.23;;;;;;;;;;5043568;28;20131;-86
2021/07/11 04:41:57;;;;;;;13.95;9.63;;;;;;;;;;5041865;28;20060;-86
2021/07/11 04:44:27;;;;;;;16.33;9.55;;;;;;;;;;5043447;28;20048;-86
2021/07/11 04:46:54;;;;;;;12.85;9.48;;;;;;;;;;5061691;28;20053;-87
2021/07/11 04:49:24;;;;;;;13.30;9.63;;;;;;;;;;5036903;28;20542;-86
2021/07/11 04:51:53;;;;;;;13.10;9.30;;;;;;;;;;5021502;28;20067;-86
2021/07/11 04:54:20;;;;;;;14.95;9.23;;;;;;;;;;5021625;28;20065;-86
2021/07/11 04:56:53;;;;;;;11.85;9.43;;;;;;;;;;5020989;28;20053;-86
2021/07/11 04:59:21;;;;;;;13.57;10.25;;;;;;;;;;5020859;28;20247;-86
2021/07/11 05:01:48;;;;;;;15.35;9.93;;;;;;;;;;5020041;28;20119;-87
2021/07/11 05:04:14;;;;;;;11.15;9.30;;;;;;;;;;5021762;28;20080;-86
2021/07/11 05:06:44;;;;;;;12.55;8.60;;;;;;;;;;5041596;28;20053;-87
2021/07/11 05:09:11;;;;;;;14.32;8.95;;;;;;;;;;5040659;28;20456;-86
2021/07/11 05:11:38;;;;;;;11.30;8.65;;;;;;;;;;5026301;28;20389;-87
2021/07/11 05:14:05;;;;;;;11.23;8.38;;;;;;;;;;5019566;28;20111;-87
2021/07/11 05:16:35;;;;;;;10.90;8.00;;;;;;;;;;5020923;28;20049;-86
2021/07/11 05:19:05;;;;;;;12.30;8.27;;;;;;;;;;5038164;28;20065;-86
2021/07/11 05:21:32;;;;;;;13.85;7.82;;;;;;;;;;5019420;28;20438;-87
2021/07/11 05:24:11;;;;;;;11.75;7.80;;;;;;;;;;5037534;28;20365;-85
2021/07/11 05:26:37;;;;;;;10.20;7.72;;;;;;;;;;5021354;28;20061;-85
2021/07/11 05:29:04;;;;;;;10.25;8.35;;;;;;;;;;5039071;28;20077;-85
2021/07/11 05:31:30;;;;;;;12.25;8.23;;;;;;;;;;5019746;28;20079;-84
2021/07/11 05:34:00;;;;;;;12.63;8.55;;;;;;;;;;5020818;28;20141;-84
2021/07/11 05:36:27;;;;;;;11.98;8.32;;;;;;;;;;5055179;28;20049;-85
2021/07/11 05:38:54;;;;;;;13.43;8.13;;;;;;;;;;5059739;28;20159;-85
2021/07/11 05:41:24;;;;;;;11.23;8.05;;;;;;;;;;5059057;28;20330;-85
2021/07/11 05:43:54;;;;;;;11.77;8.27;;;;;;;;;;5060185;28;20420;-85
2021/07/11 05:46:20;;;;;;;12.90;9.38;;;;;;;;;;5076633;28;20052;-85
2021/07/11 05:48:48;;;;;;;14.77;8.57;;;;;;;;;;5058312;28;20052;-85
2021/07/11 05:51:15;;;;;;;10.93;7.57;;;;;;;;;;5057619;28;20052;-85
2021/07/11 05:53:41;;;;;;;9.95;7.63;;;;;;;;;;5058493;28;20048;-85
2021/07/11 05:56:08;;;;;;;18.25;8.35;;;;;;;;;;5076345;28;20048;-84
2021/07/11 05:58:34;;;;;;;13.45;8.27;;;;;;;;;;5076204;28;20523;-85
2021/07/11 06:01:01;;;;;;;14.10;7.45;;;;;;;;;;5057471;28;20050;-85
2021/07/11 06:03:28;;;;;;;11.70;8.23;;;;;;;;;;5059606;28;20075;-85
2021/07/11 06:05:55;;;;;;;9.27;7.55;;;;;;;;;;5049802;28;20053;-85
2021/07/11 06:08:24;;;;;;;10.85;7.78;;;;;;;;;;5042467;28;20053;-84
2021/07/11 06:10:53;;;;;;;10.95;8.90;;;;;;;;;;5063787;28;20052;-84
2021/07/11 06:13:20;;;;;;;8.52;7.22;;;;;;;;;;5044939;28;20057;-84
2021/07/11 06:15:47;;;;;;;10.27;7.82;;;;;;;;;;5043434;28;20052;-84
2021/07/11 06:18:15;;;;;;;11.05;7.78;;;;;;;;;;5058768;28;20049;-83
2021/07/11 06:20:42;;;;;;;8.55;7.15;;;;;;;;;;5041087;28;20255;-85
2021/07/11 06:23:10;;;;;;;9.18;7.10;;;;;;;;;;5043512;28;20431;-85
2021/07/11 06:25:37;;;;;;;8.55;6.93;;;;;;;;;;5059381;28;20049;-85
2021/07/11 06:28:04;;;;;;;9.85;6.80;;;;;;;;;;5058464;28;20079;-84
2021/07/11 06:30:32;;;;;;;11.63;8.32;;;;;;;;;;5057384;28;20076;-84
2021/07/11 06:32:59;;;;;;;10.75;7.93;;;;;;;;;;5057011;28;20052;-84
2021/07/11 06:35:27;;;;;;;12.65;8.75;;;;;;;;;;5057850;28;20612;-84
2021/07/11 06:38:06;;;;;;;13.75;8.30;;;;;;;;;;5052452;28;20051;-85
2021/07/11 06:40:32;;;;;;;10.73;7.75;;;;;;;;;;5036694;28;20414;-85
2021/07/11 06:42:59;;;;;;;12.98;8.55;;;;;;;;;;5041984;28;20411;-85
2021/07/11 06:45:27;;;;;;;11.13;8.57;;;;;;;;;;5053235;28;20037;-85
2021/07/11 06:47:54;;;;;;;13.73;8.30;;;;;;;;;;5071951;28;20063;-84
2021/07/11 06:50:21;;;;;;;11.00;8.45;;;;;;;;;;5041619;28;20072;-85
2021/07/11 06:52:50;;;;;;;10.38;8.10;;;;;;;;;;5020478;28;20076;-84
2021/07/11 06:55:17;;;;;;;10.10;7.47;;;;;;;;;;5019362;28;20486;-85
2021/07/11 06:57:53;;;;;;;9.35;7.55;;;;;;;;;;5040478;28;20394;-85
2021/07/11 07:00:20;;;;;;;8.93;7.03;;;;;;;;;;5061506;28;20475;-85
2021/07/11 07:02:50;;;;;;;9.18;7.22;;;;;;;;;;5063222;28;20191;-85
2021/07/11 07:05:18;;;;;;;9.23;7.18;;;;;;;;;;5060808;28;20135;-85
2021/07/11 07:07:44;;;;;;;10.10;6.55;;;;;;;;;;5043389;28;20059;-86
2021/07/11 07:10:13;;;;;;;15.02;6.57;;;;;;;;;;5043990;28;20122;-86
2021/07/11 07:12:42;;;;;;;9.98;6.53;;;;;;;;;;5060010;28;20052;-85
2021/07/11 07:15:09;;;;;;;10.05;6.47;;;;;;;;;;5055276;28;20425;-86
2021/07/11 07:17:36;;;;;;;7.43;6.00;;;;;;;;;;5027000;28;20060;-86
2021/07/11 07:20:03;;;;;;;8.30;6.63;;;;;;;;;;5044957;28;20060;-86
2021/07/11 07:22:30;;;;;;;8.20;6.40;;;;;;;;;;5025656;28;20053;-86
2021/07/11 07:24:57;;;;;;;9.63;6.28;;;;;;;;;;5050730;28;20056;-86
2021/07/11 07:27:24;;;;;;;8.77;6.80;;;;;;;;;;5060081;28;20088;-86
2021/07/11 07:29:51;;;;;;;9.40;6.53;;;;;;;;;;5044784;28;20059;-86
2021/07/11 07:32:18;;;;;;;8.90;5.82;;;;;;;;;;5060891;28;20049;-86
2021/07/11 07:34:44;;;;;;;11.43;7.15;;;;;;;;;;5043390;28;20037;-86
2021/07/11 07:37:11;;;;;;;14.43;7.32;;;;;;;;;;5024559;28;20049;-85
2021/07/11 07:39:38;;;;;;;7.57;5.50;;;;;;;;;;5030891;28;20085;-86
2021/07/11 07:42:06;;;;;;;7.00;6.30;;;;;;;;;;5048711;28;20045;-85
2021/07/11 07:44:33;;;;;;;10.13;7.15;;;;;;;;;;5029359;28;20081;-85
2021/07/11 07:47:00;;;;;;;7.22;5.88;;;;;;;;;;5026751;28;20057;-86
2021/07/11 07:49:28;;;;;;;8.88;6.05;;;;;;;;;;5029303;28;20057;-86
2021/07/11 07:52:00;;;;;;;11.27;7.40;;;;;;;;;;5045335;28;20247;-85
2021/07/11 07:54:26;;;;;;;9.35;7.28;;;;;;;;;;5027520;28;20341;-86
2021/07/11 07:56:53;;;;;;;9.05;6.82;;;;;;;;;;5025245;28;20119;-85
2021/07/11 07:59:20;;;;;;;9.25;7.05;;;;;;;;;;5047825;28;20056;-86
2021/07/11 08:01:46;;;;;;;7.78;5.93;;;;;;;;;;5026676;28;20134;-85
2021/07/11 08:04:13;;;;;;;9.48;8.05;;;;;;;;;;5035062;28;20041;-85
2021/07/11 08:06:43;;;;;;;7.18;6.47;;;;;;;;;;5059658;28;20075;-85
2021/07/11 08:09:14;;;;;;;7.35;6.00;;;;;;;;;;5057462;28;20059;-85
2021/07/11 08:11:44;;;;;;;7.18;6.20;;;;;;;;;;5028021;28;20051;-86
2021/07/11 08:14:13;;;;;;;7.53;6.70;;;;;;;;;;5027921;28;20128;-85
2021/07/11 08:16:42;;;;;;;9.60;6.53;;;;;;;;;;5023330;28;20140;-85
2021/07/11 08:19:12;;;;;;;8.55;6.38;;;;;;;;;;5030279;28;20065;-85
2021/07/11 08:21:39;;;;;;;8.45;7.18;;;;;;;;;;5034449;28;20045;-85
2021/07/11 08:24:06;;;;;;;9.88;6.38;;;;;;;;;;5029373;28;20413;-85
2021/07/11 08:26:35;;;;;;;8.75;6.32;;;;;;;;;;5030033;28;20131;-86
2021/07/11 08:29:02;;;;;;;8.48;6.82;;;;;;;;;;5049638;28;20083;-85
2021/07/11 08:31:29;;;;;;;10.07;5.90;;;;;;;;;;5022867;28;20179;-85
2021/07/11 08:33:56;;;;;;;6.78;5.93;;;;;;;;;;5045168;28;20045;-85
2021/07/11 08:36:23;;;;;;;6.05;4.72;;;;;;;;;;5035365;28;20051;-85
2021/07/11 08:38:49;;;;;;;7.35;4.95;;;;;;;;;;5045594;28;20092;-84
2021/07/11 08:41:16;;;;;;;5.78;4.82;;;;;;;;;;5032451;28;20044;-84
2021/07/11 08:43:44;;;;;;;5.28;4.78;;;;;;;;;;5029765;28;20312;-85
2021/07/11 08:46:11;;;;;;;7.05;4.78;;;;;;;;;;5043494;28;20046;-85
2021/07/11 08:48:40;;;;;;;8.43;5.20;;;;;;;;;;5032628;28;20057;-85
2021/07/11 08:51:06;;;;;;;5.47;4.75;;;;;;;;;;5027078;28;20056;-85
2021/07/11 08:53:34;;;;;;;6.95;4.78;;;;;;;;;;5029346;28;20108;-85
2021/07/11 08:56:02;;;;;;;5.90;4.20;;;;;;;;;;5025620;28;20067;-85
2021/07/11 08:58:29;;;;;;;6.28;5.68;;;;;;;;;;5027422;28;20057;-85
2021/07/11 09:00:56;;;;;;;7.57;5.05;;;;;;;;;;5049131;28;20063;-85
2021/07/11 09:03:23;;;;;;;6.95;5.15;;;;;;;;;;5021255;28;20053;-84
2021/07/11 09:05:53;;;;;;;7.90;5.22;;;;;;;;;;5029923;28;20391;-84
2021/07/11 09:08:23;;;;;;;6.15;5.55;;;;;;;;;;5043864;28;20055;-84
2021/07/11 09:10:53;;;;;;;7.65;4.78;;;;;;;;;;5025831;28;20329;-84
2021/07/11 09:13:21;;;;;;;7.60;5.53;;;;;;;;;;5045622;28;20333;-84
2021/07/11 09:15:50;;;;;;;5.40;4.38;;;;;;;;;;5035610;28;20063;-85
2021/07/11 09:18:24;;;;;;;5.07;4.57;;;;;;;;;;5040410;28;20060;-85
2021/07/11 09:20:55;;;;;;;6.32;4.60;;;;;;;;;;5062923;28;20072;-85
2021/07/11 09:23:29;;;;;;;6.63;4.97;;;;;;;;;;5027270;28;20055;-85
2021/07/11 09:25:56;;;;;;;4.70;4.05;;;;;;;;;;5022110;28;20065;-85
2021/07/11 09:28:23;;;;;;;7.07;4.28;;;;;;;;;;5020976;28;20168;-84
2021/07/11 09:31:00;;;;;;;6.30;4.43;;;;;;;;;;5049265;28;20048;-84
2021/07/11 09:33:30;;;;;;;8.05;5.70;;;;;;;;;;5031448;28;20049;-84
2021/07/11 09:36:23;;;;;;;8.50;4.40;;;;;;;;;;5027238;28;20049;-84
2021/07/11 09:38:51;;;;;;;7.57;5.57;;;;;;;;;;5022441;28;20290;-84
2021/07/11 09:41:20;;;;;;;6.82;4.70;;;;;;;;;;5042172;28;20041;-85
2021/07/11 09:43:48;;;;;;;7.53;6.05;;;;;;;;;;5043083;28;20060;-85
2021/07/11 09:46:16;;;;;;;5.20;4.70;;;;;;;;;;5020287;28;20075;-85
2021/07/11 09:48:43;;;;;;;6.32;5.10;;;;;;;;;;5047884;28;20148;-85
2021/07/11 09:51:17;;;;;;;6.30;4.85;;;;;;;;;;5022391;28;20102;-85
2021/07/11 09:53:44;;;;;;;7.18;5.40;;;;;;;;;;5018797;28;20056;-85
2021/07/11 09:56:29;;;;;;;8.60;5.10;;;;;;;;;;5039371;28;20048;-86
2021/07/11 09:58:57;;;;;;;5.78;5.07;;;;;;;;;;5039302;28;20358;-85
2021/07/11 10:01:29;;;;;;;4.97;4.50;;;;;;;;;;5023101;28;20036;-86
2021/07/11 10:03:59;;;;;;;6.50;4.85;;;;;;;;;;5049098;28;20111;-85
2021/07/11 10:06:32;;;;;;;7.35;5.10;;;;;;;;;;5055492;28;20080;-87
2021/07/11 10:08:59;;;;;;;6.72;5.20;;;;;;;;;;5032416;28;20413;-85
2021/07/11 10:11:26;;;;;;;5.00;4.45;;;;;;;;;;5024539;28;20373;-85
2021/07/11 10:13:54;;;;;;;5.18;4.40;;;;;;;;;;5025194;28;20156;-85
2021/07/11 10:16:24;;;;;;;6.25;4.43;;;;;;;;;;5043204;28;20088;-85
2021/07/11 10:18:55;;;;;;;11.00;5.10;;;;;;;;;;5022972;28;20037;-85
2021/07/11 10:21:28;;;;;;;4.93;4.07;;;;;;;;;;5022720;28;20047;-85
2021/07/11 10:23:55;;;;;;;6.60;4.65;;;;;;;;;;5016896;28;20132;-85
2021/07/11 10:26:22;;;;;;;5.28;4.50;;;;;;;;;;5046732;28;20061;-85
2021/07/11 10:28:50;;;;;;;7.32;4.70;;;;;;;;;;5023548;28;20050;-84
2021/07/11 10:31:24;;;;;;;10.02;4.03;;;;;;;;;;5027889;28;20056;-84
2021/07/11 10:33:53;;;;;;;7.63;4.68;;;;;;;;;;5042673;28;20071;-84
2021/07/11 10:36:39;;;;;;;8.00;4.97;;;;;;;;;;5039238;28;20041;-85
2021/07/11 10:39:05;;;;;;;;;;;;;;;;;;5057217;28;20132;-85
2021/07/11 10:41:32;;;;;;;7.50;4.45;;;;;;;;;;5031558;28;19972;-85
2021/07/11 10:44:06;;;;;;;6.72;4.28;;;;;;;;;;5029990;28;20049;-85
2021/07/11 10:46:58;;;;;;;10.80;5.18;;;;;;;;;;5048144;28;20105;-85
2021/07/11 10:49:33;;;;;;;7.65;5.25;;;;;;;;;;5038251;28;20128;-85
2021/07/11 10:51:59;;;;;;;5.53;4.60;;;;;;;;;;5030308;28;20045;-85
2021/07/11 10:54:27;;;;;;;6.90;4.72;;;;;;;;;;5029363;28;20037;-86
2021/07/11 10:57:04;;;;;;;7.18;4.63;;;;;;;;;;5030827;28;20050;-86
2021/07/11 10:59:34;;;;;;;7.78;4.70;;;;;;;;;;5029385;28;20045;-86
2021/07/11 11:02:03;;;;;;;7.43;4.65;;;;;;;;;;5028565;28;20052;-85
2021/07/11 11:04:30;;;;;;;6.38;4.45;;;;;;;;;;5044988;28;20053;-86
2021/07/11 11:07:21;;;;;;;6.15;4.65;;;;;;;;;;5046541;28;20050;-85
2021/07/11 11:09:49;;;;;;;5.10;4.35;;;;;;;;;;5027855;28;20049;-84
2021/07/11 11:12:26;;;;;;;7.70;4.00;;;;;;;;;;5029139;28;20433;-85
2021/07/11 11:14:53;;;;;;;4.85;4.13;;;;;;;;;;5029286;28;20081;-85
2021/07/11 11:17:29;;;;;;;5.13;4.20;;;;;;;;;;5046702;28;20049;-85
2021/07/11 11:20:06;;;;;;;6.05;3.60;;;;;;;;;;5030034;28;20096;-84
2021/07/11 11:22:36;;;;;;;5.03;4.05;;;;;;;;;;5028940;28;20056;-85
2021/07/11 11:25:03;;;;;;;8.30;4.45;;;;;;;;;;5029947;28;20046;-86
2021/07/11 11:27:37;;;;;;;7.07;4.45;;;;;;;;;;5046749;28;20217;-85
2021/07/11 11:30:12;;;;;;;6.82;4.43;;;;;;;;;;5046198;28;20109;-86
2021/07/11 11:32:39;;;;;;;6.20;4.75;;;;;;;;;;5027124;28;20107;-85
2021/07/11 11:35:06;;;;;;;7.05;4.50;;;;;;;;;;5029193;28;20275;-86
2021/07/11 11:37:38;;;;;;;6.55;4.80;;;;;;;;;;5027365;28;20057;-86
2021/07/11 11:40:05;;;;;;;6.80;4.25;;;;;;;;;;5027246;28;20191;-85
2021/07/11 11:42:33;;;;;;;8.02;4.50;;;;;;;;;;5045595;28;20049;-86
2021/07/11 11:45:04;;;;;;;7.22;5.03;;;;;;;;;;5043628;28;20053;-85
2021/07/11 11:47:31;;;;;;;5.72;4.32;;;;;;;;;;5028147;28;20257;-86
2021/07/11 11:50:12;;;;;;;6.30;5.13;;;;;;;;;;5027738;28;20140;-86
2021/07/11 11:52:38;;;;;;;8.65;4.50;;;;;;;;;;5037613;28;20057;-86
2021/07/11 11:55:06;;;;;;;6.55;4.85;;;;;;;;;;5044162;28;20083;-86
2021/07/11 11:57:33;;;;;;;7.75;4.90;;;;;;;;;;5053941;28;20314;-86
2021/07/11 11:59:59;;;;;;;7.28;5.05;;;;;;;;;;5039452;28;20069;-87
2021/07/11 12:02:32;;;;;;;5.90;4.95;;;;;;;;;;5035341;28;20056;-84
2021/07/11 12:05:12;;;;;;;7.80;5.20;;;;;;;;;;5068161;28;20056;-85
2021/07/11 12:07:45;;;;;;;4.95;4.13;;;;;;;;;;5038927;28;20050;-85
2021/07/11 12:10:14;;;;;;;6.32;4.15;;;;;;;;;;5055674;28;20077;-85
2021/07/11 12:12:41;;;;;;;4.72;3.78;;;;;;;;;;5039997;28;20416;-85
2021/07/11 12:15:11;;;;;;;5.38;4.40;;;;;;;;;;5052753;28;20056;-85
2021/07/11 12:17:38;;;;;;;4.63;4.00;;;;;;;;;;5037973;28;20045;-85
2021/07/11 12:20:05;;;;;;;5.00;3.97;;;;;;;;;;5064926;28;20045;-85
2021/07/11 12:22:36;;;;;;;6.15;4.65;;;;;;;;;;5045297;28;20055;-85
2021/07/11 12:25:19;;;;;;;4.47;4.03;;;;;;;;;;5050808;28;20049;-87
2021/07/11 12:28:00;;;;;;;6.25;4.20;;;;;;;;;;5051847;28;20077;-86
2021/07/11 12:30:47;;;;;;;7.90;4.40;;;;;;;;;;5036503;28;20105;-86
2021/07/11 12:33:25;;;;;;;5.25;4.10;;;;;;;;;;5035068;28;20049;-86
2021/07/11 12:35:58;;;;;;;6.32;4.50;;;;;;;;;;5036977;28;20267;-86
2021/07/11 12:38:30;;;;;;;6.00;4.10;;;;;;;;;;5019301;28;20073;-86
2021/07/11 12:40:58;;;;;;;5.90;4.20;;;;;;;;;;5039261;28;20049;-86
2021/07/11 12:43:32;;;;;;;8.40;4.80;;;;;;;;;;5047691;28;20119;-89
2021/07/11 12:46:03;;;;;;;5.10;4.32;;;;;;;;;;5029131;28;20419;-87
2021/07/11 12:48:37;;;;;;;6.25;4.20;;;;;;;;;;5019368;28;20106;-86
2021/07/11 12:51:23;;;;;;;7.35;4.72;;;;;;;;;;5020364;28;20080;-85
2021/07/11 12:53:55;;;;;;;5.78;4.43;;;;;;;;;;5030305;28;20052;-87
2021/07/11 12:56:24;;;;;;;7.13;4.32;;;;;;;;;;5021740;28;20056;-86
2021/07/11 12:58:52;;;;;;;4.78;4.18;;;;;;;;;;5044610;28;20347;-87
2021/07/11 13:01:24;;;;;;;6.70;4.20;;;;;;;;;;5020898;28;20072;-87
2021/07/11 13:04:00;;;;;;;7.97;4.53;;;;;;;;;;5044734;28;20113;-87
2021/07/11 13:06:37;;;;;;;5.70;4.38;;;;;;;;;;5043290;28;20128;-87
2021/07/11 13:09:06;;;;;;;4.85;3.90;;;;;;;;;;5028456;28;20049;-87
2021/07/11 13:11:34;;;;;;;6.80;4.35;;;;;;;;;;5021582;28;20057;-87
2021/07/11 13:14:01;;;;;;;4.57;4.13;;;;;;;;;;5020272;28;20404;-87
2021/07/11 13:16:31;;;;;;;19.58;4.97;;;;;;;;;;5023563;28;20118;-86
2021/07/11 13:18:57;;;;;;;7.55;4.35;;;;;;;;;;5040012;28;20045;-87
2021/07/11 13:21:35;;;;;;;4.97;4.03;;;;;;;;;;5031865;28;20059;-86
2021/07/11 13:24:04;;;;;;;5.82;4.45;;;;;;;;;;5021237;28;20409;-87
2021/07/11 13:26:31;;;;;;;7.53;5.13;;;;;;;;;;5035800;28;20075;-83
2021/07/11 13:28:57;;;;;;;6.57;5.97;;;;;;;;;;5036912;28;20813;-83
2021/07/11 13:31:28;;;;;;;9.35;7.18;;;;;;;;;;5052398;28;20289;-81
2021/07/11 13:34:09;;;;;;;10.13;8.35;;;;;;;;;;5021229;28;20041;-82
2021/07/11 13:36:37;;;;;;;15.38;9.20;;;;;;;;;;5022501;28;20064;-83
2021/07/11 13:39:04;;;;;;;17.08;10.52;;;;;;;;;;5040222;28;20045;-82
2021/07/11 13:41:31;;;;;;;9.65;7.95;;;;;;;;;;5026471;28;20166;-82
2021/07/11 13:44:08;;;;;;;12.45;9.70;;;;;;;;;;5032431;28;20084;-85
2021/07/11 13:46:34;;;;;;;11.75;8.77;;;;;;;;;;5032470;28;20168;-84
2021/07/11 13:49:01;;;;;;;10.20;7.85;;;;;;;;;;5051687;28;20313;-84
2021/07/11 13:51:28;;;;;;;13.50;8.85;;;;;;;;;;5051623;28;20345;-85
2021/07/11 13:54:01;;;;;;;14.85;11.85;;;;;;;;;;5036377;28;20049;-85
2021/07/11 13:56:27;;;;;;;14.90;12.25;;;;;;;;;;5014594;28;20095;-86
2021/07/11 13:58:54;;;;;;;14.07;10.65;;;;;;;;;;5031029;28;20061;-82
2021/07/11 14:01:24;;;;;;;11.52;8.73;;;;;;;;;;5032013;28;20371;-83
2021/07/11 14:03:51;;;;;;;13.80;11.80;;;;;;;;;;5015381;28;20076;-82
2021/07/11 14:06:18;;;;;;;12.93;11.05;;;;;;;;;;5030661;28;20063;-83
2021/07/11 14:08:45;;;;;;;9.65;8.65;;;;;;;;;;5031088;28;20064;-82
2021/07/11 14:11:12;;;;;;;13.23;9.00;;;;;;;;;;5014446;28;20231;-84
2021/07/11 14:13:38;;;;;;;10.02;8.00;;;;;;;;;;5031582;28;20520;-83
2021/07/11 14:16:05;;;;;;;10.20;9.20;;;;;;;;;;5028909;28;20475;-84
2021/07/11 14:18:32;;;;;;;7.90;7.10;;;;;;;;;;5015359;28;20050;-83
2021/07/11 14:20:59;;;;;;;12.10;9.18;;;;;;;;;;5033779;28;20114;-84
2021/07/11 14:23:35;;;;;;;10.27;9.27;;;;;;;;;;5015922;28;20061;-87
2021/07/11 14:26:02;;;;;;;8.02;7.22;;;;;;;;;;5041399;28;20153;-84
2021/07/11 14:28:29;;;;;;;9.48;8.18;;;;;;;;;;5052848;28;20281;-83
2021/07/11 14:31:11;;;;;;;8.13;7.28;;;;;;;;;;5053908;28;20048;-83
2021/07/11 14:33:41;;;;;;;8.02;6.65;;;;;;;;;;5073221;28;20284;-85
2021/07/11 14:36:08;;;;;;;6.70;5.72;;;;;;;;;;5055214;28;20052;-85
2021/07/11 14:38:39;;;;;;;6.20;5.60;;;;;;;;;;5072936;28;20379;-84
2021/07/11 14:41:08;;;;;;;8.48;6.57;;;;;;;;;;5070296;28;20045;-84
2021/07/11 14:43:35;;;;;;;8.52;7.18;;;;;;;;;;5054745;28;20045;-84